| time (UTC) | temp F | wind direction | speed MPH | gust MPH | rain 1hr in | rain 24hr in | rain mn in | humidity % | barometer mb |
| 20260508224604 | 72 | 207 | 5.0 | 10.0 | 0.00 | 0.00 | 0.00 | 38 | 1011.4 |
| 20260508223058 | 72 | 232 | 6.0 | 11.0 | 0.00 | 0.00 | 0.00 | 38 | 1011.6 |
| 20260508221559 | 73 | 224 | 5.0 | 13.0 | 0.00 | 0.00 | 0.00 | 37 | 1011.5 |
| 20260508220121 | 73 | 239 | 5.0 | 12.0 | 0.00 | 0.00 | 0.00 | 36 | 1011.4 |
| 20260508214558 | 72 | 304 | 6.0 | 14.0 | 0.00 | 0.00 | 0.00 | 37 | 1011.5 |
| 20260508213100 | 73 | 239 | 5.0 | 12.0 | 0.00 | 0.00 | 0.00 | 36 | 1011.5 |
| 20260508211559 | 74 | 275 | 3.0 | 9.0 | 0.00 | 0.00 | 0.00 | 36 | 1011.5 |
| 20260508210059 | 72 | 219 | 5.0 | 12.0 | 0.00 | 0.00 | 0.00 | 37 | 1011.8 |
| 20260508204607 | 73 | 279 | 4.0 | 10.0 | 0.00 | 0.00 | 0.00 | 38 | 1011.8 |
| 20260508203058 | 71 | 139 | 6.0 | 14.0 | 0.00 | 0.00 | 0.00 | 35 | 1011.9 |
| 20260508201601 | 71 | 151 | 5.0 | 13.0 | 0.00 | 0.00 | 0.00 | 36 | 1011.9 |
| 20260508194601 | 70 | 207 | 6.0 | 12.0 | 0.00 | 0.00 | 0.00 | 35 | 1012.7 |
| 20260508193107 | 70 | 132 | 5.0 | 15.0 | 0.00 | 0.00 | 0.00 | 35 | 1012.8 |
| 20260508191600 | 69 | 122 | 8.0 | 14.0 | 0.00 | 0.00 | 0.00 | 36 | 1013.0 |
| 20260508190108 | 70 | 286 | 4.0 | 17.0 | 0.00 | 0.00 | 0.00 | 36 | 1013.5 |
| 20260508184610 | 69 | 146 | 7.0 | 16.0 | 0.00 | 0.00 | 0.00 | 37 | 1013.9 |
| 20260508183056 | 69 | 201 | 2.0 | 11.0 | 0.00 | 0.00 | 0.00 | 36 | 1014.1 |
| 20260508181610 | 68 | 109 | 5.0 | 14.0 | 0.00 | 0.00 | 0.00 | 38 | 1014.4 |
| 20260508180107 | 67 | 163 | 3.0 | 11.0 | 0.00 | 0.00 | 0.00 | 38 | 1014.6 |
| 20260508174614 | 69 | 19 | 1.0 | 4.0 | 0.00 | 0.00 | 0.00 | 40 | 1015.0 |
| 20260508173101 | 66 | 0 | 2.0 | 6.0 | 0.00 | 0.00 | 0.00 | 39 | 1015.2 |
| 20260508171558 | 65 | 344 | 1.0 | 8.0 | 0.00 | 0.00 | 0.00 | 42 | 1015.8 |
| 20260508170059 | 64 | 0 | 2.0 | 5.0 | 0.00 | 0.00 | 0.00 | 45 | 1015.8 |
| 20260508164556 | 64 | 26 | 5.0 | 12.0 | 0.00 | 0.00 | 0.00 | 47 | 1016.1 |
| 20260508163056 | 65 | 0 | 0.0 | 8.0 | 0.00 | 0.00 | 0.00 | 49 | 1016.3 |
| 20260508161558 | 64 | 0 | 1.0 | 4.0 | 0.00 | 0.00 | 0.00 | 50 | 1016.6 |
| 20260508160104 | 63 | 300 | 2.0 | 4.0 | 0.00 | 0.00 | 0.00 | 49 | 1017.1 |
| 20260508154559 | 63 | 271 | 4.0 | 8.0 | 0.00 | 0.00 | 0.00 | 52 | 1017.2 |
| 20260508153101 | 63 | 267 | 2.0 | 9.0 | 0.00 | 0.00 | 0.00 | 52 | 1017.3 |
| 20260508151558 | 62 | 230 | 3.0 | 10.0 | 0.00 | 0.00 | 0.00 | 53 | 1017.5 |
| 20260508150056 | 61 | 259 | 5.0 | 10.0 | 0.00 | 0.00 | 0.00 | 53 | 1017.5 |
| 20260508144607 | 59 | 299 | 1.0 | 4.0 | 0.00 | 0.00 | 0.00 | 63 | 1017.6 |
| 20260508143100 | 57 | 0 | 0.0 | 3.0 | 0.00 | 0.00 | 0.00 | 73 | 1017.7 |
| 20260508141601 | 56 | 5 | 0.0 | 2.0 | 0.00 | 0.00 | 0.00 | 75 | 1017.9 |
| 20260508140100 | 54 | 5 | 1.0 | 3.0 | 0.00 | 0.00 | 0.00 | 78 | 1017.9 |
| 20260508134616 | 53 | 22 | 0.0 | 1.0 | 0.00 | 0.00 | 0.00 | 82 | 1017.9 |
| 20260508133058 | 51 | 0 | 0.0 | 3.0 | 0.00 | 0.00 | 0.00 | 87 | 1017.7 |
| 20260508131557 | 49 | 0 | 2.0 | 4.0 | 0.00 | 0.00 | 0.00 | 90 | 1017.7 |
| 20260508130057 | 48 | 25 | 2.0 | 5.0 | 0.00 | 0.00 | 0.00 | 92 | 1017.7 |
| 20260508124557 | 48 | 46 | 2.0 | 4.0 | 0.00 | 0.00 | 0.00 | 92 | 1017.6 |
| 20260508123108 | 48 | 0 | 3.0 | 4.0 | 0.00 | 0.00 | 0.00 | 92 | 1017.5 |
| 20260508121559 | 47 | 0 | 0.0 | 2.0 | 0.00 | 0.00 | 0.00 | 94 | 1017.4 |
| 20260508120058 | 45 | 0 | 1.0 | 3.0 | 0.00 | 0.00 | 0.00 | 96 | 1017.3 |
| 20260508114558 | 43 | 111 | 1.0 | 3.0 | 0.00 | 0.00 | 0.00 | 97 | 1017.2 |
| 20260508113105 | 42 | 110 | 2.0 | 4.0 | 0.00 | 0.00 | 0.00 | 97 | 1017.3 |
| 20260508111557 | 42 | 110 | 2.0 | 4.0 | 0.00 | 0.00 | 0.00 | 96 | 1017.1 |
| 20260508110057 | 42 | 109 | 2.0 | 4.0 | 0.00 | 0.00 | 0.00 | 96 | 1016.8 |
| 20260508104606 | 42 | 0 | 0.0 | 4.0 | 0.00 | 0.00 | 0.00 | 96 | 1016.7 |
| 20260508103059 | 43 | 0 | 0.0 | 2.0 | 0.00 | 0.00 | 0.00 | 96 | 1016.8 |
| 20260508101559 | 43 | 106 | 2.0 | 6.0 | 0.00 | 0.00 | 0.00 | 96 | 1016.5 |
| 20260508100059 | 44 | 0 | 0.0 | 4.0 | 0.00 | 0.00 | 0.00 | 96 | 1016.4 |
| 20260508094615 | 44 | 101 | 4.0 | 6.0 | 0.00 | 0.00 | 0.00 | 95 | 1016.2 |
| 20260508093058 | 44 | 100 | 2.0 | 4.0 | 0.00 | 0.00 | 0.00 | 94 | 1016.2 |
| 20260508091605 | 43 | 99 | 3.0 | 6.0 | 0.00 | 0.00 | 0.00 | 91 | 1016.2 |
| 20260508090057 | 44 | 130 | 2.0 | 3.0 | 0.00 | 0.00 | 0.00 | 91 | 1016.1 |
| 20260508084558 | 44 | 138 | 1.0 | 6.0 | 0.00 | 0.00 | 0.00 | 91 | 1016.3 |
| 20260508083056 | 44 | 134 | 3.0 | 6.0 | 0.00 | 0.00 | 0.00 | 90 | 1016.5 |
| 20260508081618 | 44 | 111 | 2.0 | 4.0 | 0.00 | 0.00 | 0.00 | 90 | 1016.3 |
| 20260508080101 | 44 | 107 | 1.0 | 3.0 | 0.00 | 0.00 | 0.00 | 93 | 1016.5 |
| 20260508074558 | 44 | 107 | 2.0 | 4.0 | 0.00 | 0.00 | 0.00 | 92 | 1016.4 |
| 20260508073059 | 45 | 103 | 1.0 | 3.0 | 0.00 | 0.00 | 0.00 | 90 | 1016.4 |
| 20260508071559 | 45 | 102 | 1.0 | 4.0 | 0.00 | 0.00 | 0.00 | 89 | 1016.5 |
| 20260508070059 | 45 | 101 | 1.0 | 4.0 | 0.00 | 0.00 | 0.00 | 89 | 1016.5 |
| 20260508064558 | 46 | 95 | 0.0 | 4.0 | 0.00 | 0.00 | 0.00 | 90 | 1016.4 |
| 20260508063108 | 46 | 0 | 2.0 | 4.0 | 0.00 | 0.00 | 0.00 | 89 | 1016.5 |
| 20260508061559 | 47 | 86 | 1.0 | 4.0 | 0.00 | 0.00 | 0.00 | 91 | 1016.7 |
| 20260508054558 | 47 | 84 | 1.0 | 3.0 | 0.00 | 0.00 | 0.00 | 89 | 1016.7 |
| 20260508053058 | 48 | 84 | 0.0 | 3.0 | 0.00 | 0.00 | 0.00 | 86 | 1016.7 |
| 20260508051558 | 48 | 0 | 2.0 | 4.0 | 0.00 | 0.00 | 0.00 | 85 | 1016.7 |
| 20260508050058 | 48 | 82 | 1.0 | 4.0 | 0.00 | 0.00 | 0.00 | 84 | 1017.0 |
| 20260508044600 | 48 | 76 | 2.0 | 4.0 | 0.00 | 0.00 | 0.00 | 84 | 1016.8 |
| 20260508043103 | 48 | 0 | 0.0 | 0.0 | 0.00 | 0.00 | 0.00 | 87 | 1016.7 |
| 20260508041557 | 49 | 0 | 0.0 | 2.0 | 0.00 | 0.00 | 0.00 | 86 | 1016.5 |
| 20260508034559 | 50 | 38 | 1.0 | 3.0 | 0.00 | 0.00 | 0.00 | 85 | 1016.2 |
| 20260508033057 | 50 | 38 | 1.0 | 3.0 | 0.00 | 0.00 | 0.00 | 83 | 1016.1 |
| 20260508031557 | 51 | 0 | 0.0 | 3.0 | 0.00 | 0.00 | 0.00 | 82 | 1016.1 |
| 20260508030104 | 52 | 34 | 2.0 | 3.0 | 0.00 | 0.00 | 0.00 | 79 | 1016.1 |
| 20260508024606 | 53 | 0 | 0.0 | 0.0 | 0.00 | 0.00 | 0.00 | 77 | 1016.1 |
| 20260508023059 | 54 | 0 | 0.0 | 2.0 | 0.00 | 0.00 | 0.00 | 76 | 1015.9 |
| 20260508021559 | 55 | 30 | 0.0 | 2.0 | 0.00 | 0.00 | 0.00 | 73 | 1015.8 |
| 20260508020103 | 56 | 349 | 2.0 | 8.0 | 0.00 | 0.00 | 0.00 | 70 | 1015.7 |
| 20260508014559 | 57 | 0 | 0.0 | 0.0 | 0.00 | 0.00 | 0.00 | 71 | 1015.4 |
| 20260508013059 | 58 | 294 | 2.0 | 4.0 | 0.00 | 0.00 | 0.00 | 58 | 1014.9 |
| 20260508011557 | 59 | 290 | 3.0 | 5.0 | 0.00 | 0.00 | 0.00 | 57 | 1014.7 |
| 20260508010056 | 59 | 290 | 2.0 | 5.0 | 0.00 | 0.00 | 0.00 | 57 | 1014.6 |
| 20260508004603 | 60 | 303 | 3.0 | 6.0 | 0.00 | 0.08 | 0.00 | 54 | 1014.3 |
| 20260508003056 | 61 | 298 | 5.0 | 9.0 | 0.00 | 0.08 | 0.00 | 50 | 1014.2 |
| 20260508001559 | 62 | 275 | 7.0 | 14.0 | 0.00 | 0.08 | 0.00 | 50 | 1014.0 |
| 20260508000059 | 63 | 267 | 6.0 | 14.0 | 0.00 | 0.08 | 0.00 | 49 | 1013.8 |
| 20260507234558 | 63 | 263 | 9.0 | 16.0 | 0.00 | 0.13 | 0.00 | 49 | 1013.8 |
| 20260507233059 | 64 | 238 | 7.0 | 13.0 | 0.00 | 0.13 | 0.00 | 49 | 1013.7 |
| 20260507231559 | 64 | 240 | 7.0 | 12.0 | 0.00 | 0.13 | 0.00 | 54 | 1013.7 |
| 20260507230105 | 64 | 296 | 9.0 | 16.0 | 0.00 | 0.13 | 0.00 | 46 | 1013.8 |